Time;durP1;ratioP1;P1;durP2;ratioP2;P2;SDS_P1;SDS_P2;PMS_P1;PMS_P2;Temp;Humidity;BMP_temperature;BMP_pressure;BME280_temperature;BME280_humidity;BME280_pressure;Samples;Min_cycle;Max_cycle;Signal;HPM_P1;HPM_P2
2023/06/05 00:00:35;;;;;;;9.67;5.37;;;;;;;-145.69;100.00;52135.47;5073604;28;20210;-82
2023/06/05 00:03:01;;;;;;;8.77;5.30;;;;;;;-145.69;100.00;52139.41;5073769;28;20195;-83
2023/06/05 00:05:29;;;;;;;9.73;4.67;;;;;;;-145.69;100.00;52107.72;5074044;28;20203;-83
2023/06/05 00:07:55;;;;;;;7.73;5.00;;;;;;;-145.69;100.00;52143.38;5074265;28;20233;-83
2023/06/05 00:10:25;;;;;;;9.07;4.90;;;;;;;-145.69;100.00;52115.66;5074148;28;20297;-82
2023/06/05 00:12:53;;;;;;;8.80;4.80;;;;;;;-145.69;100.00;52131.50;5073633;28;20249;-83
2023/06/05 00:15:21;;;;;;;8.43;4.57;;;;;;;-145.69;100.00;52135.47;5074076;28;20195;-82
2023/06/05 00:17:48;;;;;;;7.57;4.50;;;;;;;-145.69;100.00;52127.53;5073929;28;20206;-83
2023/06/05 00:20:14;;;;;;;7.80;4.43;;;;;;;-145.69;100.00;52147.34;5073585;28;20197;-82
2023/06/05 00:22:44;;;;;;;8.63;5.00;;;;;;;-145.69;100.00;52115.66;5072050;28;20191;-81
2023/06/05 00:25:11;;;;;;;11.53;4.67;;;;;;;-145.69;100.00;52125.56;5073620;28;20230;-82
2023/06/05 00:27:40;;;;;;;9.23;4.53;;;;;;;-145.69;100.00;52155.25;5073225;28;20198;-80
2023/06/05 00:30:08;;;;;;;7.00;4.03;;;;;;;-145.69;100.00;52145.34;5072108;28;20568;-80
2023/06/05 00:32:36;;;;;;;10.13;5.10;;;;;;;-145.69;100.00;52117.63;5073121;28;20195;-80
2023/06/05 00:35:03;;;;;;;7.30;4.70;;;;;;;-145.69;100.00;52151.28;5072448;28;20199;-80
2023/06/05 00:37:31;;;;;;;8.40;4.70;;;;;;;-145.69;100.00;52133.47;5073239;28;20207;-80
2023/06/05 00:39:57;;;;;;;7.60;4.40;;;;;;;-145.69;100.00;52171.09;5073080;28;20257;-80
2023/06/05 00:42:26;;;;;;;10.43;4.63;;;;;;;-145.69;100.00;52133.47;5072546;28;20577;-80
2023/06/05 00:44:53;;;;;;;8.73;5.00;;;;;;;-145.69;100.00;52137.44;5073232;28;20285;-80
2023/06/05 00:47:19;;;;;;;10.27;5.33;;;;;;;-145.69;100.00;52133.47;5073033;28;20696;-80
2023/06/05 00:49:51;;;;;;;8.67;4.73;;;;;;;-145.69;100.00;52121.59;5072717;28;20199;-81
2023/06/05 00:52:17;;;;;;;11.47;4.30;;;;;;;-145.69;100.00;52157.25;5072816;28;20252;-80
2023/06/05 00:54:44;;;;;;;9.43;4.77;;;;;;;-145.69;100.00;52151.28;5072992;28;20649;-80
2023/06/05 00:57:12;;;;;;;9.27;4.53;;;;;;;-145.69;100.00;52111.69;5072985;28;20517;-80
2023/06/05 00:59:40;;;;;;;6.67;4.53;;;;;;;-145.69;100.00;52109.72;5072817;28;20230;-80
2023/06/05 01:02:07;;;;;;;9.43;4.53;;;;;;;-145.69;100.00;52151.28;5072967;28;20211;-80
2023/06/05 01:04:36;;;;;;;9.20;4.33;;;;;;;-145.69;100.00;52135.47;5072923;28;20277;-80
2023/06/05 01:07:05;;;;;;;7.87;4.10;;;;;;;-145.69;100.00;52151.28;5086099;28;20198;-81
2023/06/05 01:09:32;;;;;;;10.07;4.37;;;;;;;-145.69;100.00;52135.47;5085641;28;20191;-80
2023/06/05 01:12:04;;;;;;;13.13;4.77;;;;;;;-145.69;100.00;52135.47;5073284;28;20206;-81
2023/06/05 01:14:32;;;;;;;9.13;4.67;;;;;;;-145.69;100.00;52111.69;5073154;28;20206;-81
2023/06/05 01:17:02;;;;;;;8.83;4.93;;;;;;;-145.69;100.00;52135.47;5068320;28;20199;-80
2023/06/05 01:19:31;;;;;;;8.67;4.43;;;;;;;-145.69;100.00;52133.47;5071961;28;20232;-80
2023/06/05 01:21:58;;;;;;;7.87;4.50;;;;;;;-145.69;100.00;52143.38;5072304;28;20720;-81
2023/06/05 01:24:27;;;;;;;9.33;4.83;;;;;;;-145.69;100.00;52171.09;5072949;28;20240;-80
2023/06/05 01:27:11;;;;;;;7.47;4.47;;;;;;;-145.69;100.00;52151.28;5072429;28;20199;-80
2023/06/05 01:29:48;;;;;;;6.80;4.43;;;;;;;-145.69;100.00;52143.38;5072954;28;20205;-80
2023/06/05 01:32:21;;;;;;;8.30;5.07;;;;;;;-145.69;100.00;52157.25;5052722;28;20297;-81
2023/06/05 01:34:49;;;;;;;8.50;4.63;;;;;;;-145.69;100.00;52151.28;5052540;28;20546;-81
2023/06/05 01:37:18;;;;;;;12.97;4.83;;;;;;;-145.69;100.00;52143.38;5052945;28;20594;-80
2023/06/05 01:39:48;;;;;;;11.50;4.60;;;;;;;-145.69;100.00;52147.34;5069849;28;20230;-80
2023/06/05 01:42:15;;;;;;;10.57;4.93;;;;;;;-145.69;100.00;52139.41;5052502;28;20202;-80
2023/06/05 01:44:43;;;;;;;10.00;4.87;;;;;;;-145.69;100.00;52165.16;5052251;28;20196;-80
2023/06/05 01:47:10;;;;;;;10.43;4.97;;;;;;;-145.69;100.00;52149.31;5053539;28;20301;-80
2023/06/05 01:49:36;;;;;;;9.03;4.80;;;;;;;-145.69;100.00;52157.25;5065692;28;20195;-80
2023/06/05 01:52:03;;;;;;;15.93;4.67;;;;;;;-145.69;100.00;52141.41;5075923;28;20202;-80
2023/06/05 01:54:32;;;;;;;7.57;4.27;;;;;;;-145.69;100.00;52145.34;5075916;28;20199;-81
2023/06/05 01:57:00;;;;;;;8.30;4.47;;;;;;;-145.69;100.00;52147.34;5076015;28;20220;-80
2023/06/05 01:59:27;;;;;;;7.87;4.30;;;;;;;-145.69;100.00;52151.28;5075485;28;20284;-81
2023/06/05 02:01:53;;;;;;;12.80;5.00;;;;;;;-145.69;100.00;52147.34;5075898;28;20199;-83
2023/06/05 02:04:20;;;;;;;8.00;4.53;;;;;;;-145.69;100.00;52155.25;5075852;28;20202;-80
2023/06/05 02:06:48;;;;;;;10.37;4.73;;;;;;;-145.69;100.00;52157.25;5074781;28;20205;-80
2023/06/05 02:09:15;;;;;;;10.97;4.87;;;;;;;-145.69;100.00;52165.16;5075950;28;20260;-80
2023/06/05 02:11:45;;;;;;;7.17;4.07;;;;;;;-145.69;100.00;52149.31;5075424;28;20208;-80
2023/06/05 02:14:13;;;;;;;9.37;4.07;;;;;;;-145.69;100.00;52141.41;5075655;28;20203;-81
2023/06/05 02:16:41;;;;;;;8.63;4.20;;;;;;;-145.69;100.00;52105.75;5075645;28;20211;-80
2023/06/05 02:19:07;;;;;;;11.03;4.70;;;;;;;-145.69;100.00;52139.41;5075535;28;20231;-80
2023/06/05 02:21:35;;;;;;;9.80;4.10;;;;;;;-145.69;100.00;52129.50;5075279;28;20695;-80
2023/06/05 02:24:02;;;;;;;11.40;4.60;;;;;;;-145.69;100.00;52163.19;5075462;28;20245;-80
2023/06/05 02:26:29;;;;;;;9.37;4.40;;;;;;;-145.69;100.00;52115.66;5075603;28;20241;-81
2023/06/05 02:28:56;;;;;;;7.10;4.07;;;;;;;-145.69;100.00;52147.34;5075633;28;20206;-80
2023/06/05 02:31:25;;;;;;;10.10;4.37;;;;;;;-145.69;100.00;52147.34;5075145;28;20658;-80
2023/06/05 02:33:52;;;;;;;8.60;4.57;;;;;;;-145.69;100.00;52143.38;5075275;28;20576;-81
2023/06/05 02:36:19;;;;;;;8.30;4.83;;;;;;;-145.69;100.00;52165.16;5074879;28;20541;-80
2023/06/05 02:38:48;;;;;;;6.53;4.07;;;;;;;-145.69;100.00;52147.34;5075146;28;20230;-81
2023/06/05 02:41:14;;;;;;;10.17;4.23;;;;;;;-145.69;100.00;52137.44;5075026;28;20191;-80
2023/06/05 02:43:41;;;;;;;6.47;3.93;;;;;;;-145.69;100.00;52167.13;5074745;28;20202;-81
2023/06/05 02:46:10;;;;;;;13.33;4.17;;;;;;;-145.69;100.00;52119.63;5075252;28;20248;-80
2023/06/05 02:48:38;;;;;;;8.77;4.80;;;;;;;-145.69;100.00;52149.31;5074767;28;20234;-80
2023/06/05 02:51:06;;;;;;;9.23;4.37;;;;;;;-145.69;100.00;52159.22;5074786;28;20293;-81
2023/06/05 02:53:32;;;;;;;7.80;4.13;;;;;;;-145.69;100.00;52133.47;5074508;28;20256;-80
2023/06/05 02:56:01;;;;;;;11.07;5.00;;;;;;;-145.69;100.00;52194.88;5074737;28;20198;-80
2023/06/05 02:58:28;;;;;;;9.70;4.87;;;;;;;-145.69;100.00;52161.19;5074348;28;20207;-80
2023/06/05 03:00:55;;;;;;;7.47;4.13;;;;;;;-145.69;100.00;52141.41;5074437;28;20250;-80
2023/06/05 03:03:25;;;;;;;8.97;4.87;;;;;;;-145.69;100.00;52143.38;5074567;28;20248;-80
2023/06/05 03:05:53;;;;;;;11.77;5.17;;;;;;;-145.69;100.00;52175.06;5073980;28;20909;-80
2023/06/05 03:08:20;;;;;;;9.40;5.27;;;;;;;-145.69;100.00;52155.25;5074453;28;20589;-80
2023/06/05 03:10:47;;;;;;;9.37;4.60;;;;;;;-145.69;100.00;52167.13;5074554;28;20615;-80
2023/06/05 03:13:13;;;;;;;12.27;4.83;;;;;;;-145.69;100.00;52159.22;5074450;28;20225;-81
2023/06/05 03:15:40;;;;;;;10.40;5.53;;;;;;;-145.69;100.00;52169.13;5073679;28;20453;-80
2023/06/05 03:18:06;;;;;;;9.17;4.67;;;;;;;-145.69;100.00;52153.28;5074492;28;20612;-81
2023/06/05 03:20:34;;;;;;;8.13;4.17;;;;;;;-145.69;100.00;52143.38;5074030;28;20222;-80
2023/06/05 03:23:02;;;;;;;7.13;4.20;;;;;;;-145.69;100.00;52133.47;5074369;28;20213;-81
2023/06/05 03:25:28;;;;;;;7.70;4.60;;;;;;;-145.69;100.00;52145.34;5073980;28;20234;-79
2023/06/05 03:27:55;;;;;;;6.10;3.77;;;;;;;-145.69;100.00;52165.16;5074405;28;20221;-80
2023/06/05 03:30:21;;;;;;;7.77;4.40;;;;;;;-145.69;100.00;52165.16;5073807;28;20624;-80
2023/06/05 03:32:48;;;;;;;7.63;4.37;;;;;;;-145.69;100.00;52188.91;5074238;28;20209;-80
2023/06/05 03:35:15;;;;;;;9.63;4.90;;;;;;;-145.69;100.00;52194.88;5073938;28;20207;-81
2023/06/05 03:37:41;;;;;;;8.13;4.23;;;;;;;-145.69;100.00;52155.25;5073831;28;20203;-80
2023/06/05 03:40:12;;;;;;;8.90;4.63;;;;;;;-145.69;100.00;52173.09;5073671;28;20222;-80
2023/06/05 03:42:38;;;;;;;8.63;4.83;;;;;;;-145.69;100.00;52157.25;5073872;28;20195;-80
2023/06/05 03:45:06;;;;;;;11.03;5.20;;;;;;;-145.69;100.00;52190.91;5073538;28;20226;-80
2023/06/05 03:47:34;;;;;;;9.87;4.30;;;;;;;-145.69;100.00;52159.22;5070317;28;20246;-80
2023/06/05 03:50:03;;;;;;;10.47;4.63;;;;;;;-145.69;100.00;52173.09;5074023;28;20608;-80
2023/06/05 03:52:29;;;;;;;11.83;4.73;;;;;;;-145.69;100.00;52145.34;5073606;28;20206;-80
2023/06/05 03:54:56;;;;;;;11.23;5.10;;;;;;;-145.69;100.00;52157.25;5073368;28;20236;-80
2023/06/05 03:57:24;;;;;;;9.33;4.53;;;;;;;-145.69;100.00;52147.34;5073380;28;20249;-81
2023/06/05 03:59:50;;;;;;;11.73;4.47;;;;;;;-145.69;100.00;52163.19;5073094;28;20805;-80
2023/06/05 04:02:17;;;;;;;8.27;4.73;;;;;;;-145.69;100.00;52163.19;5073034;28;20203;-81
2023/06/05 04:04:44;;;;;;;13.23;4.63;;;;;;;-145.69;100.00;52182.97;5073716;28;20209;-81
2023/06/05 04:07:10;;;;;;;8.60;4.20;;;;;;;-145.69;100.00;52186.94;5073591;28;20206;-81
2023/06/05 04:09:37;;;;;;;8.20;4.73;;;;;;;-145.69;100.00;52115.66;5072783;28;20198;-81
2023/06/05 04:12:05;;;;;;;10.13;4.47;;;;;;;-145.69;100.00;52186.94;5073144;28;20199;-81
2023/06/05 04:14:33;;;;;;;8.60;4.07;;;;;;;-145.69;100.00;52159.22;5073046;28;20194;-80
2023/06/05 04:16:59;;;;;;;7.60;3.83;;;;;;;-145.69;100.00;52179.03;5073340;28;20203;-80
2023/06/05 04:19:26;;;;;;;7.63;4.23;;;;;;;-145.69;100.00;52149.31;5073076;28;20321;-80
2023/06/05 04:21:52;;;;;;;8.10;4.03;;;;;;;-145.69;100.00;52153.28;5072347;28;20594;-80
2023/06/05 04:24:19;;;;;;;5.93;4.10;;;;;;;-145.69;100.00;52175.06;5072955;28;20198;-81
2023/06/05 04:26:47;;;;;;;8.00;3.77;;;;;;;-145.69;100.00;52177.03;5072041;28;20620;-81
2023/06/05 04:29:15;;;;;;;8.83;4.37;;;;;;;-145.69;100.00;52145.34;5072704;28;20687;-80
2023/06/05 04:31:44;;;;;;;9.07;4.33;;;;;;;-145.69;100.00;52167.13;5073091;28;20226;-81
2023/06/05 04:34:11;;;;;;;7.93;4.33;;;;;;;-145.69;100.00;52186.94;5073161;28;20199;-81
2023/06/05 04:36:37;;;;;;;8.67;4.60;;;;;;;-145.69;100.00;52181.00;5072940;28;20194;-81
2023/06/05 04:39:06;;;;;;;8.03;3.90;;;;;;;-145.69;100.00;52186.94;5072752;28;20293;-81
2023/06/05 04:41:34;;;;;;;9.83;4.40;;;;;;;-145.69;100.00;52175.06;5072812;28;20648;-81
2023/06/05 04:44:01;;;;;;;14.93;4.27;;;;;;;-145.69;100.00;52175.06;5071874;28;20641;-81
2023/06/05 04:46:27;;;;;;;7.47;4.20;;;;;;;-145.69;100.00;52159.22;5072459;28;20661;-81
2023/06/05 04:48:57;;;;;;;7.73;3.90;;;;;;;-145.69;100.00;52105.75;5072847;28;20221;-81
2023/06/05 04:51:24;;;;;;;8.47;3.90;;;;;;;-145.69;100.00;52159.22;5072942;28;20664;-81
2023/06/05 04:53:52;;;;;;;9.13;4.30;;;;;;;-145.69;100.00;52151.28;5072325;28;20210;-80
2023/06/05 04:56:20;;;;;;;14.63;4.33;;;;;;;-145.69;100.00;52123.56;5072568;28;20285;-80
2023/06/05 04:58:47;;;;;;;8.17;4.10;;;;;;;-145.69;100.00;52155.25;5072581;28;20282;-81
2023/06/05 05:01:13;;;;;;;7.43;4.10;;;;;;;-145.69;100.00;52143.38;5072742;28;20234;-82
2023/06/05 05:03:42;;;;;;;7.33;4.10;;;;;;;-145.69;100.00;52179.03;5072632;28;20206;-81
2023/06/05 05:06:10;;;;;;;21.07;4.80;;;;;;;-145.69;100.00;52167.13;5072740;28;20202;-81
2023/06/05 05:08:37;;;;;;;8.37;3.73;;;;;;;-145.69;100.00;52179.03;5072802;28;20214;-81
2023/06/05 05:11:03;;;;;;;6.60;3.63;;;;;;;-145.69;100.00;52157.25;5072917;28;20202;-81
2023/06/05 05:13:30;;;;;;;7.40;4.07;;;;;;;-145.69;100.00;52151.28;5072399;28;20206;-81
2023/06/05 05:15:56;;;;;;;12.07;4.40;;;;;;;-145.69;100.00;52131.50;5072061;28;20195;-81
2023/06/05 05:18:22;;;;;;;8.67;4.00;;;;;;;-145.69;100.00;52155.25;5071419;28;20207;-80
2023/06/05 05:20:49;;;;;;;6.50;4.10;;;;;;;-145.69;100.00;52135.47;5073063;28;20229;-81
2023/06/05 05:23:17;;;;;;;5.77;3.07;;;;;;;-145.69;100.00;52165.16;5076107;28;20190;-80
2023/06/05 05:25:44;;;;;;;6.43;3.57;;;;;;;-145.69;100.00;52125.56;5076187;28;20199;-80
2023/06/05 05:28:10;;;;;;;6.37;4.00;;;;;;;-145.69;100.00;52163.19;5076486;28;20669;-81
2023/06/05 05:30:37;;;;;;;8.47;4.60;;;;;;;-145.69;100.00;52133.47;5076232;28;20665;-80
2023/06/05 05:33:03;;;;;;;6.27;3.20;;;;;;;-145.69;100.00;52143.38;5076429;28;20226;-81
2023/06/05 05:35:30;;;;;;;9.47;3.10;;;;;;;-145.69;100.00;52121.59;5076316;28;20260;-81
2023/06/05 05:37:57;;;;;;;6.00;4.00;;;;;;;-145.69;100.00;52125.56;5076313;28;20203;-81
2023/06/05 05:40:25;;;;;;;6.93;3.83;;;;;;;-145.69;100.00;52127.53;5076155;28;20222;-81
2023/06/05 05:42:51;;;;;;;7.80;3.40;;;;;;;-145.69;100.00;52143.38;5076150;28;20194;-81
2023/06/05 05:45:18;;;;;;;7.73;3.60;;;;;;;-145.69;100.00;52113.66;5075935;28;20202;-82
2023/06/05 05:47:45;;;;;;;8.48;4.05;;;;;;;-145.69;97.72;52125.56;5076042;28;20230;-81
2023/06/05 05:50:11;;;;;;;8.00;3.33;;;;;;;-145.69;100.00;52082.00;5075730;28;20244;-82
2023/06/05 05:52:38;;;;;;;6.72;3.10;;;;;;;-145.69;100.00;52109.72;5075016;28;20562;-82
2023/06/05 05:55:05;;;;;;;6.18;3.30;;;;;;;-145.69;95.85;52111.69;5055418;28;20489;-82
2023/06/05 05:57:33;;;;;;;6.45;3.35;;;;;;;-145.69;97.78;52115.66;5055594;28;20793;-82
2023/06/05 06:00:00;;;;;;;5.10;3.20;;;;;;;-145.69;97.22;52103.78;5055916;28;20230;-82
2023/06/05 06:02:26;;;;;;;6.30;3.65;;;;;;;-145.69;94.86;52107.72;5066771;28;20226;-82
2023/06/05 06:04:53;;;;;;;6.10;3.03;;;;;;;-145.69;94.97;52072.09;5075692;28;20201;-82
2023/06/05 06:07:19;;;;;;;7.78;3.42;;;;;;;-145.69;92.57;52103.78;5075476;28;20202;-82
2023/06/05 06:09:46;;;;;;;8.77;3.28;;;;;;;-145.69;85.10;52103.78;5075258;28;20657;-82
2023/06/05 06:12:13;;;;;;;5.68;3.17;;;;;;;-145.69;84.41;52099.81;5075669;28;20236;-81
2023/06/05 06:14:41;;;;;;;9.52;3.20;;;;;;;-145.69;79.89;52087.94;5075374;28;20208;-82
2023/06/05 06:17:10;;;;;;;6.53;3.42;;;;;;;-145.69;81.73;52062.19;5075288;28;20199;-82
2023/06/05 06:19:36;;;;;;;11.40;3.63;;;;;;;-145.69;80.59;52076.03;5074421;28;20195;-82
2023/06/05 06:22:03;;;;;;;7.65;3.42;;;;;;;-145.69;75.81;52056.25;5075070;28;20195;-82
2023/06/05 06:24:29;;;;;;;6.22;3.30;;;;;;;-145.69;80.31;52056.25;5074620;28;20203;-82
2023/06/05 06:26:56;;;;;;;6.47;3.50;;;;;;;-145.69;80.86;52054.25;5075708;28;20282;-82
2023/06/05 06:29:27;;;;;;;10.90;3.67;;;;;;;-145.69;85.27;52056.25;5075363;28;20199;-82
2023/06/05 06:31:55;;;;;;;9.07;3.83;;;;;;;-145.69;73.17;52074.06;5073965;28;20715;-81
2023/06/05 06:34:21;;;;;;;8.05;3.47;;;;;;;-145.69;70.92;52076.03;5074592;28;20678;-82
2023/06/05 06:36:49;;;;;;;8.35;3.30;;;;;;;-145.69;72.43;52044.38;5075067;28;20210;-81
2023/06/05 06:39:15;;;;;;;5.80;3.35;;;;;;;-145.69;65.04;52060.22;5075162;28;20214;-82
2023/06/05 06:41:42;;;;;;;5.90;3.50;;;;;;;-145.69;68.92;52054.25;5075123;28;20237;-81
2023/06/05 06:44:08;;;;;;;7.07;3.35;;;;;;;-145.69;70.00;52056.25;5074484;28;20202;-81
2023/06/05 06:46:35;;;;;;;8.63;4.07;;;;;;;-145.69;73.97;52048.31;5054804;28;20196;-81
2023/06/05 06:49:03;;;;;;;5.85;3.40;;;;;;;-145.69;67.32;52064.16;5059229;28;20277;-81
2023/06/05 06:51:30;;;;;;;5.10;3.30;;;;;;;-145.69;73.46;52052.28;5074874;28;20207;-82
2023/06/05 06:53:56;;;;;;;5.10;3.10;;;;;;;-145.69;66.30;52032.47;5074869;28;20198;-82
2023/06/05 06:56:23;;;;;;;10.00;3.28;;;;;;;-145.69;68.47;52054.25;5075076;28;20206;-82
2023/06/05 06:58:50;;;;;;;8.75;3.85;;;;;;;-145.69;70.43;52040.41;5074179;28;20198;-82
2023/06/05 07:01:19;;;;;;;8.55;3.60;;;;;;;-145.69;64.24;52016.66;5074679;28;20223;-82
2023/06/05 07:03:46;;;;;;;7.93;3.10;;;;;;;-145.69;62.38;52050.31;5074102;28;20657;-82
2023/06/05 07:06:15;;;;;;;6.07;3.20;;;;;;;-145.69;64.31;52062.19;5074885;28;20206;-83
2023/06/05 07:08:41;;;;;;;10.00;3.53;;;;;;;-145.69;64.98;52036.44;5074336;28;20321;-81
2023/06/05 07:11:07;;;;;;;14.63;3.83;;;;;;;-145.69;65.35;52076.03;5074739;28;20214;-81
2023/06/05 07:13:34;;;;;;;8.85;3.60;;;;;;;-145.69;65.63;52068.13;5074581;28;20203;-81
2023/06/05 07:16:00;;;;;;;6.30;3.30;;;;;;;-145.69;65.25;52024.56;5073228;28;20450;-82
2023/06/05 07:18:27;;;;;;;6.78;3.20;;;;;;;-145.69;62.62;52028.53;5074353;28;20226;-81
2023/06/05 07:20:53;;;;;;;8.70;3.70;;;;;;;-145.69;65.44;52052.28;5074472;28;20254;-82
2023/06/05 07:23:21;;;;;;;11.65;3.40;;;;;;;-145.69;69.76;52016.66;5074311;28;20191;-82
2023/06/05 07:25:48;;;;;;;5.47;3.17;;;;;;;-145.69;64.80;52030.50;5074148;28;20290;-82
2023/06/05 07:28:18;;;;;;;7.63;3.53;;;;;;;-145.69;65.59;52038.44;5074018;28;20199;-81
2023/06/05 07:30:45;;;;;;;10.57;3.00;;;;;;;-145.69;63.76;52016.66;5073536;28;20221;-81
2023/06/05 07:33:11;;;;;;;8.82;3.75;;;;;;;-145.69;67.73;52020.59;5074388;28;20206;-82
2023/06/05 07:35:38;;;;;;;7.18;3.40;;;;;;;-145.69;63.96;52000.81;5074334;28;20746;-83
2023/06/05 07:38:05;;;;;;;10.65;3.42;;;;;;;-145.69;70.80;52028.53;5073848;28;20194;-83
2023/06/05 07:40:32;;;;;;;4.90;3.25;;;;;;;-145.69;66.86;52056.25;5074992;28;20223;-80
2023/06/05 07:42:59;;;;;;;11.63;3.53;;;;;;;-145.69;65.41;52004.75;5074362;28;20658;-83
2023/06/05 07:45:25;;;;;;;5.10;3.40;;;;;;;-145.69;69.13;52032.47;5072939;28;20438;-83
2023/06/05 07:47:52;;;;;;;6.28;3.72;;;;;;;-145.69;66.75;52028.53;5074115;28;20538;-82
2023/06/05 07:50:18;;;;;;;7.68;3.92;;;;;;;-145.69;65.11;52050.31;5074154;28;20205;-81
2023/06/05 07:52:45;;;;;;;6.15;3.30;;;;;;;-145.69;66.36;52042.38;5059756;28;20203;-83
2023/06/05 07:55:12;;;;;;;8.02;3.50;;;;;;;-145.69;66.83;52004.75;5053631;28;20658;-80
2023/06/05 07:57:39;;;;;;;8.13;4.00;;;;;;;-145.69;63.06;52032.47;5060925;28;20249;-81
2023/06/05 08:00:10;;;;;;;8.23;3.47;;;;;;;-145.69;61.90;52012.69;5073466;28;20290;-81
2023/06/05 08:02:37;;;;;;;8.57;3.20;;;;;;;-145.69;66.87;52000.81;5072962;28;20191;-81
2023/06/05 08:05:04;;;;;;;7.15;3.38;;;;;;;-145.69;62.57;52036.44;5073650;28;20317;-77
2023/06/05 08:07:30;;;;;;;8.07;3.30;;;;;;;-145.69;61.33;52060.22;5070472;28;20633;-78
2023/06/05 08:09:57;;;;;;;5.60;3.40;;;;;;;-145.69;60.46;51992.88;5053302;28;20207;-82
2023/06/05 08:12:23;;;;;;;10.02;3.38;;;;;;;-145.69;61.53;52030.50;5053421;28;20203;-82
2023/06/05 08:14:51;;;;;;;10.63;3.55;;;;;;;-145.69;62.50;52012.69;5057830;28;20198;-81
2023/06/05 08:17:17;;;;;;;4.93;3.30;;;;;;;-145.69;65.29;52026.53;5072919;28;20201;-82
2023/06/05 08:19:44;;;;;;;5.25;3.40;;;;;;;-145.69;65.03;52022.59;5073123;28;20244;-82
2023/06/05 08:22:12;;;;;;;11.20;3.28;;;;;;;-145.69;61.05;52000.81;5073098;28;20234;-82
2023/06/05 08:24:38;;;;;;;6.93;3.50;;;;;;;-145.69;60.31;51963.19;5073053;28;20225;-86
2023/06/05 08:27:06;;;;;;;7.80;3.22;;;;;;;-145.69;59.83;51988.91;5072378;28;20589;-81
2023/06/05 08:29:36;;;;;;;11.77;3.55;;;;;;;-145.69;67.52;52004.75;5073038;28;20649;-81
2023/06/05 08:32:04;;;;;;;5.25;3.28;;;;;;;-145.69;65.61;52000.81;5073135;28;20205;-79
2023/06/05 08:34:31;;;;;;;9.02;3.67;;;;;;;-145.69;60.64;51998.81;5073259;28;20208;-81
2023/06/05 08:36:58;;;;;;;9.32;3.40;;;;;;;-145.69;59.21;52028.53;5072621;28;20841;-77
2023/06/05 08:39:27;;;;;;;6.85;3.30;;;;;;;-145.69;60.96;51977.03;5072986;28;20289;-81
2023/06/05 08:41:54;;;;;;;9.52;3.67;;;;;;;-145.69;56.45;51998.81;5072855;28;20697;-82
2023/06/05 08:44:21;;;;;;;8.15;3.85;;;;;;;-145.69;63.27;52000.81;5072762;28;20649;-82
2023/06/05 08:46:49;;;;;;;9.63;3.45;;;;;;;-145.69;61.77;52006.75;5072539;28;20230;-86
2023/06/05 08:49:21;;;;;;;15.25;4.28;;;;;;;-145.69;63.78;52014.66;5073396;28;20198;-83
2023/06/05 08:51:51;;;;;;;8.13;3.55;;;;;;;-145.69;63.39;51990.91;5072877;28;20653;-79
2023/06/05 08:54:19;;;;;;;9.38;3.53;;;;;;;-145.69;65.94;52010.69;5072802;28;20304;-80
2023/06/05 08:56:48;;;;;;;7.50;3.65;;;;;;;-145.69;64.93;51988.91;5072652;28;20233;-83
2023/06/05 08:59:15;;;;;;;5.85;3.83;;;;;;;-145.69;66.01;51990.91;5073032;28;20230;-82
2023/06/05 09:01:43;;;;;;;14.25;4.05;;;;;;;-145.69;66.05;51998.81;5072898;28;20230;-83
2023/06/05 09:04:10;;;;;;;6.78;3.70;;;;;;;-145.69;67.90;51981.00;5072988;28;20268;-83
2023/06/05 09:06:39;;;;;;;6.38;3.88;;;;;;;-145.69;65.37;51994.88;5072578;28;20202;-81
2023/06/05 09:09:06;;;;;;;7.32;3.90;;;;;;;-145.69;68.56;51963.19;5072868;28;20199;-84
2023/06/05 09:11:33;;;;;;;7.78;4.07;;;;;;;-145.69;68.81;52006.75;5072799;28;20202;-83
2023/06/05 09:14:01;;;;;;;6.32;3.83;;;;;;;-145.69;66.18;52010.69;5072567;28;20207;-83
2023/06/05 09:16:35;;;;;;;8.32;4.13;;;;;;;-145.69;65.05;51992.88;5072647;28;20252;-82
2023/06/05 09:19:02;;;;;;;9.40;4.60;;;;;;;-145.69;64.24;51981.00;5073129;28;20205;-83
2023/06/05 09:21:32;;;;;;;7.18;4.20;;;;;;;-145.69;64.22;51981.00;5072332;28;20215;-82
2023/06/05 09:24:14;;;;;;;8.60;4.43;;;;;;;-145.69;60.85;52004.75;5072255;28;20197;-82
2023/06/05 09:26:54;;;;;;;6.53;4.13;;;;;;;-145.69;63.94;51973.06;5072548;28;20657;-85
2023/06/05 09:29:22;;;;;;;7.38;4.03;;;;;;;-145.69;63.29;51986.94;5072690;28;20572;-83
2023/06/05 09:31:49;;;;;;;10.98;4.20;;;;;;;-145.69;59.21;51961.19;5072774;28;20203;-82
2023/06/05 09:34:23;;;;;;;7.35;4.38;;;;;;;-145.69;56.86;51996.84;5071794;28;20191;-82
2023/06/05 09:36:51;;;;;;;10.57;4.30;;;;;;;-145.69;57.25;51969.13;5072691;28;20241;-87
2023/06/05 09:39:20;;;;;;;8.45;3.97;;;;;;;-145.69;56.84;52000.81;5072881;28;20646;-87
2023/06/05 09:41:51;;;;;;;7.65;4.13;;;;;;;-145.69;59.03;51984.97;5072828;28;20233;-84
2023/06/05 09:44:20;;;;;;;11.38;4.63;;;;;;;-145.69;60.78;51992.88;5073357;28;20206;-81
2023/06/05 09:46:58;;;;;;;7.40;4.63;;;;;;;-145.69;59.84;52002.78;5071257;28;20202;-81
2023/06/05 09:49:27;;;;;;;7.30;3.97;;;;;;;-145.69;61.04;51988.91;5072825;28;20244;-82
2023/06/05 09:51:56;;;;;;;9.98;5.00;;;;;;;-145.69;56.69;51981.00;5068867;28;20638;-85
2023/06/05 09:54:27;;;;;;;7.07;4.38;;;;;;;-145.69;56.46;51957.25;5059021;28;20191;-83
2023/06/05 09:56:58;;;;;;;8.40;4.25;;;;;;;-145.69;54.59;52000.81;5073225;28;20203;-83
2023/06/05 09:59:29;;;;;;;13.52;4.90;;;;;;;-145.69;57.91;51943.38;5072513;28;20779;-81
2023/06/05 10:01:57;;;;;;;8.88;4.00;;;;;;;-145.69;58.66;51961.19;5072338;28;20291;-80
2023/06/05 10:04:27;;;;;;;8.27;4.20;;;;;;;-145.69;55.36;51963.19;5071410;28;20198;-82
2023/06/05 10:06:58;;;;;;;7.60;4.20;;;;;;;-145.69;53.11;51973.06;5072356;28;20550;-82
2023/06/05 10:09:26;;;;;;;6.47;3.95;;;;;;;-145.69;53.99;51969.13;5075448;28;20199;-76
2023/06/05 10:11:54;;;;;;;11.07;4.57;;;;;;;-145.69;56.20;51969.13;5075551;28;20195;-82
2023/06/05 10:14:21;;;;;;;7.40;3.88;;;;;;;-145.69;53.41;51959.22;5075567;28;20240;-82
2023/06/05 10:16:51;;;;;;;7.78;4.13;;;;;;;-145.69;57.01;51971.09;5076022;28;20654;-84
2023/06/05 10:19:19;;;;;;;8.18;4.55;;;;;;;-145.69;55.10;51945.34;5070524;28;20229;-80
2023/06/05 10:21:49;;;;;;;8.00;4.00;;;;;;;-145.69;50.12;51933.47;5056395;28;20219;-84
2023/06/05 10:24:19;;;;;;;11.35;4.78;;;;;;;-145.69;51.91;51959.22;5056952;28;20206;-85
2023/06/05 10:27:15;;;;;;;8.93;3.90;;;;;;;-145.69;51.62;51947.34;5056341;28;20294;-84
2023/06/05 10:30:10;;;;;;;12.40;4.85;;;;;;;-145.69;50.50;51953.28;5056279;28;20210;-86
2023/06/05 10:32:45;;;;;;;6.13;4.05;;;;;;;-145.69;49.32;51941.41;5056412;28;20290;-84
2023/06/05 10:35:22;;;;;;;7.43;4.53;;;;;;;-145.69;55.60;51937.44;5065296;28;20197;-85
2023/06/05 10:38:03;;;;;;;12.80;4.28;;;;;;;-145.69;51.33;51941.41;5075625;28;20198;-84
2023/06/05 10:40:30;;;;;;;10.38;4.63;;;;;;;-145.69;50.07;51945.34;5076156;28;20234;-84
2023/06/05 10:43:24;;;;;;;8.20;4.55;;;;;;;-145.69;50.34;51905.75;5075490;28;20218;-83
2023/06/05 10:45:51;;;;;;;13.07;5.15;;;;;;;-145.69;53.78;51925.56;5075828;28;20210;-82
2023/06/05 10:48:17;;;;;;;7.65;4.43;;;;;;;-145.69;49.31;51889.91;5074743;28;20237;-83
2023/06/05 10:50:47;;;;;;;10.13;4.68;;;;;;;-145.69;50.34;51957.25;5076706;28;20203;-85
2023/06/05 10:53:45;;;;;;;10.68;4.10;;;;;;;-145.69;54.82;51947.34;5076668;28;20195;-81
2023/06/05 10:56:52;;;;;;;9.95;4.50;;;;;;;-145.69;52.89;51943.38;5077255;28;20213;-81
2023/06/05 10:59:21;;;;;;;10.02;4.03;;;;;;;-145.69;53.75;51957.25;5075941;28;20281;-84
2023/06/05 11:02:28;;;;;;;7.32;4.32;;;;;;;-145.69;52.16;51941.41;5075282;28;20299;-84
2023/06/05 11:05:13;;;;;;;8.25;4.53;;;;;;;-145.69;50.31;51933.47;5073166;28;20195;-81
2023/06/05 11:07:42;;;;;;;6.85;4.07;;;;;;;-145.69;49.33;51937.44;5074884;28;20222;-83
2023/06/05 11:10:17;;;;;;;8.65;4.38;;;;;;;-145.69;48.92;51969.13;5074886;28;20199;-82
2023/06/05 11:13:00;;;;;;;7.15;4.20;;;;;;;-145.69;46.42;51941.41;5074559;28;20289;-82
2023/06/05 11:15:38;;;;;;;8.05;4.07;;;;;;;-145.69;45.74;51937.44;5074497;28;20207;-80
2023/06/05 11:18:45;;;;;;;9.57;4.20;;;;;;;-145.69;47.68;51935.47;5074516;28;20222;-82